Rochester Hills, Michigan
Current Conditions -  °F | °C
As of 8:55 AM on Thursday 30 Oct 2014 (Local Time) from KVLL Reporting Station
Clear Clear  
Wind Chill: 42°   Ceiling: Unl
Heat Index: 42°   Visibility: 10mi
Dew Point: 31°   Wind: 0mph
Humidity: 66%   Direction: NA
Pressure: 30.14"   Gusts: NA
Location:  42.66°N, 83.16°W
Report Text: KVLL 301255Z AUTO 00000KT 10SM CLR 06/00 A3014 RMK AO2 T00551003
Loading
Personal Weather Stations






























Interactive Weather Map New forecast layout! Learn more

10-Day Weather Forecast

Advertisements
Track Severe Weather on mobile